Time;durP1;ratioP1;P1;durP2;ratioP2;P2;SDS_P1;SDS_P2;PMS_P1;PMS_P2;Temp;Humidity;BMP_temperature;BMP_pressure;BME280_temperature;BME280_humidity;BME280_pressure;Samples;Min_cycle;Max_cycle;Signal;HPM_P1;HPM_P2
2022/04/18 00:00:01;;;;;;;2.40;1.63;;;20.60;74.60;;;;;;5053270;28;20187;-74
2022/04/18 00:02:28;;;;;;;3.67;1.73;;;20.80;73.60;;;;;;5053484;28;20174;-74
2022/04/18 00:04:56;;;;;;;3.73;1.47;;;20.70;73.90;;;;;;5053954;28;20172;-75
2022/04/18 00:07:23;;;;;;;2.27;1.43;;;20.70;73.70;;;;;;5054331;28;20188;-86
2022/04/18 00:09:52;;;;;;;2.97;1.40;;;20.80;72.90;;;;;;5051199;28;20180;-74
2022/04/18 00:12:20;;;;;;;2.67;1.40;;;21.00;72.70;;;;;;5054202;28;20188;-73
2022/04/18 00:14:47;;;;;;;1.90;1.10;;;21.30;72.00;;;;;;5053762;28;20207;-73
2022/04/18 00:17:15;;;;;;;1.27;0.90;;;21.30;71.00;;;;;;5054001;28;20183;-79
2022/04/18 00:19:42;;;;;;;1.63;1.20;;;21.40;71.00;;;;;;5053136;28;20642;-76
2022/04/18 00:22:09;;;;;;;1.40;1.20;;;21.50;70.70;;;;;;5050615;28;20202;-83
2022/04/18 00:24:37;;;;;;;4.23;1.80;;;21.70;70.00;;;;;;5053509;28;20180;-71
2022/04/18 00:27:04;;;;;;;4.20;1.40;;;21.60;69.90;;;;;;5053452;28;20604;-76
2022/04/18 00:29:32;;;;;;;2.07;1.30;;;21.70;70.40;;;;;;5053385;28;20643;-72
2022/04/18 00:32:00;;;;;;;2.57;1.10;;;21.80;70.00;;;;;;5044258;28;20664;-74
2022/04/18 00:34:27;;;;;;;2.33;1.30;;;21.90;68.90;;;;;;5051944;28;20207;-72
2022/04/18 00:36:55;;;;;;;2.70;1.50;;;22.00;69.10;;;;;;5048739;28;20189;-75
2022/04/18 00:39:22;;;;;;;2.00;1.40;;;22.20;68.40;;;;;;5051822;28;20180;-74
2022/04/18 00:41:49;;;;;;;1.73;1.40;;;22.30;68.30;;;;;;5046705;28;20583;-72
2022/04/18 00:44:17;;;;;;;3.43;1.20;;;22.40;67.80;;;;;;5053292;28;20184;-74
2022/04/18 00:46:44;;;;;;;6.17;1.20;;;22.50;67.50;;;;;;5052552;28;20168;-72
2022/04/18 00:49:12;;;;;;;2.37;1.10;;;22.70;66.70;;;;;;5051572;28;20180;-70
2022/04/18 00:51:39;;;;;;;6.37;1.50;;;22.80;66.80;;;;;;5051249;28;20666;-74
2022/04/18 00:54:08;;;;;;;7.27;1.27;;;22.90;67.00;;;;;;5050851;28;20180;-76
2022/04/18 00:56:35;;;;;;;1.43;1.30;;;23.10;65.60;;;;;;5050601;28;20234;-74
2022/04/18 00:59:03;;;;;;;4.20;1.20;;;23.30;65.00;;;;;;5050809;28;20179;-75
2022/04/18 01:01:30;;;;;;;1.50;1.30;;;23.40;64.00;;;;;;5050563;28;20537;-77
2022/04/18 01:03:58;;;;;;;2.17;1.33;;;23.40;64.20;;;;;;5049019;28;20180;-77
2022/04/18 01:06:25;;;;;;;1.63;1.30;;;23.50;64.60;;;;;;5052304;28;20245;-77
2022/04/18 01:08:53;;;;;;;2.10;0.97;;;23.50;63.50;;;;;;5051323;28;20711;-74
2022/04/18 01:11:20;;;;;;;3.37;1.10;;;23.60;63.80;;;;;;5049720;28;20341;-74
2022/04/18 01:13:48;;;;;;;3.63;1.33;;;23.80;63.80;;;;;;5053092;28;20175;-75
2022/04/18 01:16:16;;;;;;;2.97;1.17;;;24.00;62.40;;;;;;5053396;28;20228;-74
2022/04/18 01:18:45;;;;;;;3.13;1.40;;;24.00;62.20;;;;;;5052216;28;20187;-73
2022/04/18 01:21:16;;;;;;;2.03;1.00;;;24.20;62.00;;;;;;5053550;28;20176;-75
2022/04/18 01:23:44;;;;;;;2.90;1.47;;;24.40;61.50;;;;;;5053059;28;20258;-75
2022/04/18 01:29:01;;;;;;;4.53;1.23;;;24.60;61.10;;;;;;5040119;28;20195;-75
2022/04/18 01:31:31;;;;;;;2.90;1.20;;;24.50;60.20;;;;;;5050336;28;20188;-74
2022/04/18 01:33:59;;;;;;;1.37;1.13;;;24.80;59.60;;;;;;5048374;28;20175;-75
2022/04/18 01:36:27;;;;;;;1.80;1.07;;;24.80;60.20;;;;;;5051582;28;20198;-75
2022/04/18 01:38:56;;;;;;;4.40;1.20;;;25.10;59.40;;;;;;5050139;28;20555;-76
2022/04/18 01:41:24;;;;;;;5.47;1.43;;;25.40;58.30;;;;;;5051083;28;20688;-79
2022/04/18 01:43:51;;;;;;;4.23;1.63;;;25.40;57.50;;;;;;5050973;28;20206;-73
2022/04/18 01:46:19;;;;;;;6.03;1.27;;;25.40;57.10;;;;;;5047336;28;20270;-75
2022/04/18 01:48:50;;;;;;;4.43;1.23;;;25.60;57.70;;;;;;5044568;28;20181;-74
2022/04/18 01:51:18;;;;;;;2.63;0.77;;;25.80;54.70;;;;;;5051295;28;20245;-75
2022/04/18 01:53:46;;;;;;;1.63;0.90;;;26.00;54.60;;;;;;5049846;28;20678;-75
2022/04/18 01:56:14;;;;;;;3.27;0.90;;;25.80;53.30;;;;;;5050691;28;20674;-78
2022/04/18 01:58:41;;;;;;;1.53;0.87;;;26.10;53.00;;;;;;5051119;28;20267;-74
2022/04/18 02:01:08;;;;;;;1.97;0.87;;;26.50;50.90;;;;;;5051329;28;20606;-77
2022/04/18 02:03:36;;;;;;;1.37;0.90;;;26.60;50.60;;;;;;5053186;28;20195;-74
2022/04/18 02:06:03;;;;;;;1.80;0.90;;;26.60;50.00;;;;;;5041310;28;20187;-77
2022/04/18 02:08:30;;;;;;;1.80;1.00;;;26.60;49.40;;;;;;5051106;28;20241;-72
2022/04/18 02:10:58;;;;;;;3.73;0.70;;;26.90;48.90;;;;;;5046030;28;20635;-72
2022/04/18 02:13:28;;;;;;;3.07;0.80;;;26.80;47.10;;;;;;5048647;28;20199;-74
2022/04/18 02:15:57;;;;;;;2.73;0.90;;;26.90;48.30;;;;;;5043992;28;20795;-73
2022/04/18 02:18:25;;;;;;;2.57;0.90;;;26.80;50.90;;;;;;5049673;28;21870;-76
2022/04/18 02:20:52;;;;;;;1.90;0.80;;;26.80;50.00;;;;;;5043888;28;20191;-72
2022/04/18 02:23:19;;;;;;;1.60;0.80;;;26.60;50.00;;;;;;5049092;28;20258;-73
2022/04/18 02:25:47;;;;;;;1.07;0.77;;;26.90;48.60;;;;;;5044173;28;20323;-71
2022/04/18 02:28:15;;;;;;;2.33;0.70;;;26.90;50.10;;;;;;5043169;28;20193;-76
2022/04/18 02:30:42;;;;;;;3.23;1.07;;;26.90;47.00;;;;;;5040007;28;20240;-76
2022/04/18 02:33:09;;;;;;;3.03;0.87;;;27.00;48.80;;;;;;5045697;28;20188;-76
2022/04/18 02:35:37;;;;;;;2.07;1.07;;;26.90;48.40;;;;;;5049968;28;20226;-76
2022/04/18 02:38:04;;;;;;;1.40;0.80;;;27.10;44.80;;;;;;5051033;28;20184;-75
2022/04/18 02:40:31;;;;;;;5.90;1.20;;;27.10;45.30;;;;;;5047961;28;20531;-75
2022/04/18 02:42:59;;;;;;;1.87;1.10;;;27.50;43.90;;;;;;5045076;28;20258;-76
2022/04/18 02:45:27;;;;;;;3.10;1.10;;;28.00;45.60;;;;;;5049567;28;20192;-76
2022/04/18 02:47:54;;;;;;;1.67;0.90;;;27.90;45.70;;;;;;5046437;28;20261;-75
2022/04/18 02:50:22;;;;;;;2.10;1.00;;;28.30;45.20;;;;;;5051137;28;20222;-76
2022/04/18 02:52:49;;;;;;;3.80;0.97;;;27.80;45.00;;;;;;5044644;28;20187;-73
2022/04/18 02:55:16;;;;;;;3.27;1.20;;;27.70;45.60;;;;;;5045725;28;20227;-76
2022/04/18 02:57:44;;;;;;;3.87;1.17;;;27.60;46.10;;;;;;5048447;28;20176;-78
2022/04/18 03:00:12;;;;;;;3.00;1.17;;;27.00;45.70;;;;;;5042471;28;20655;-74
2022/04/18 03:02:40;;;;;;;1.77;1.07;;;27.30;45.20;;;;;;5052426;28;20530;-73
2022/04/18 03:05:09;;;;;;;3.10;1.10;;;28.00;44.80;;;;;;5046262;28;20211;-74
2022/04/18 03:07:37;;;;;;;12.53;1.40;;;28.50;43.50;;;;;;5045775;28;20191;-73
2022/04/18 03:10:05;;;;;;;3.13;0.93;;;27.50;44.70;;;;;;5037080;28;20425;-71
2022/04/18 03:12:33;;;;;;;2.47;1.70;;;27.70;44.80;;;;;;5048497;28;20176;-73
2022/04/18 03:15:01;;;;;;;2.87;1.90;;;27.80;44.80;;;;;;5048152;28;20200;-73
2022/04/18 03:17:28;;;;;;;3.70;1.57;;;27.80;45.40;;;;;;5043936;28;20610;-73
2022/04/18 03:19:55;;;;;;;2.73;1.83;;;27.40;45.10;;;;;;5040668;28;20264;-72
2022/04/18 03:22:24;;;;;;;3.87;1.10;;;27.40;45.70;;;;;;5048674;28;20275;-71
2022/04/18 03:24:53;;;;;;;2.97;1.00;;;27.60;45.70;;;;;;5051328;28;20726;-73
2022/04/18 03:27:20;;;;;;;4.83;0.80;;;27.60;46.20;;;;;;5046284;28;20221;-75
2022/04/18 03:29:48;;;;;;;2.67;0.97;;;27.90;45.50;;;;;;5049431;28;20187;-73
2022/04/18 03:32:16;;;;;;;4.10;1.27;;;27.70;44.40;;;;;;5055215;28;20216;-73
2022/04/18 03:34:43;;;;;;;4.70;1.10;;;28.10;44.60;;;;;;5051209;28;20215;-73
2022/04/18 03:39:56;;;;;;;3.23;0.80;;;28.40;43.30;;;;;;5048374;28;20576;-74
2022/04/18 03:42:31;;;;;;;2.73;1.10;;;28.60;42.80;;;;;;5047584;28;20219;-76
2022/04/18 03:45:02;;;;;;;4.07;1.10;;;28.50;42.50;;;;;;5049632;28;20210;-79
2022/04/18 03:47:30;;;;;;;2.93;1.10;;;28.40;43.80;;;;;;5054117;28;20310;-77
2022/04/18 03:49:58;;;;;;;4.30;1.70;;;28.10;48.00;;;;;;5050494;28;20180;-73
2022/04/18 03:52:25;;;;;;;7.00;1.73;;;27.60;49.80;;;;;;5051254;28;20187;-74
2022/04/18 03:54:53;;;;;;;2.93;1.40;;;27.90;48.90;;;;;;5052839;28;20216;-74
2022/04/18 03:57:20;;;;;;;2.83;1.42;;;27.90;47.90;;;;;;5052744;28;20187;-74
2022/04/18 03:59:48;;;;;;;5.88;1.52;;;28.50;46.50;;;;;;5047525;28;20176;-75
2022/04/18 04:02:15;;;;;;;2.20;1.40;;;29.00;45.00;;;;;;5058601;28;20187;-76
2022/04/18 04:04:43;;;;;;;6.45;1.73;;;28.90;45.90;;;;;;5052187;28;20188;-73
2022/04/18 04:07:11;;;;;;;6.13;1.80;;;28.70;46.80;;;;;;5049072;28;20271;-71
2022/04/18 04:09:38;;;;;;;5.75;1.73;;;28.30;46.20;;;;;;5052167;28;20191;-76
2022/04/18 04:12:09;;;;;;;6.67;1.77;;;28.30;46.30;;;;;;5052548;28;20183;-74
2022/04/18 04:14:36;;;;;;;5.22;1.67;;;28.70;46.80;;;;;;5052233;28;20217;-75
2022/04/18 04:17:04;;;;;;;8.80;2.10;;;28.80;47.20;;;;;;5052422;28;20187;-73
2022/04/18 04:19:31;;;;;;;8.07;1.95;;;28.90;47.50;;;;;;5067475;28;20645;-75
2022/04/18 04:21:59;;;;;;;4.93;1.70;;;28.90;47.10;;;;;;5053998;28;20226;-77
2022/04/18 04:24:26;;;;;;;4.45;1.60;;;29.30;47.10;;;;;;5048707;28;20271;-73
2022/04/18 04:26:53;;;;;;;3.45;1.80;;;29.70;46.30;;;;;;5044310;28;20180;-73
2022/04/18 04:29:24;;;;;;;5.10;1.60;;;29.80;46.40;;;;;;5049701;28;20179;-75
2022/04/18 04:31:51;;;;;;;5.75;1.70;;;30.00;45.60;;;;;;5055494;28;20171;-74
2022/04/18 04:34:18;;;;;;;5.75;1.70;;;29.60;46.80;;;;;;5053004;28;20196;-72
2022/04/18 04:36:45;;;;;;;3.83;1.70;;;29.70;46.80;;;;;;5052665;28;20181;-72
2022/04/18 04:39:13;;;;;;;5.25;1.50;;;29.20;47.70;;;;;;5053051;28;20542;-72
2022/04/18 04:41:40;;;;;;;4.90;1.42;;;28.90;49.80;;;;;;5049025;28;20220;-73
2022/04/18 04:44:08;;;;;;;5.18;2.38;;;28.70;50.30;;;;;;5050941;28;20179;-74
2022/04/18 04:46:36;;;;;;;5.90;1.95;;;28.90;49.20;;;;;;5050761;28;20206;-73
2022/04/18 04:49:05;;;;;;;4.28;1.42;;;28.80;48.90;;;;;;5052158;28;20261;-74
2022/04/18 04:51:33;;;;;;;4.18;1.23;;;28.90;49.10;;;;;;5053571;28;20164;-74
2022/04/18 04:54:00;;;;;;;6.38;1.60;;;28.70;49.50;;;;;;5053923;28;20180;-74
2022/04/18 04:56:28;;;;;;;2.60;1.48;;;28.80;49.10;;;;;;5053191;28;20210;-73
2022/04/18 04:58:55;;;;;;;3.45;1.25;;;28.90;49.70;;;;;;5053052;28;20222;-74
2022/04/18 05:01:23;;;;;;;3.85;1.48;;;29.30;49.50;;;;;;5052947;28;20184;-73
2022/04/18 05:03:53;;;;;;;4.97;1.65;;;29.20;49.50;;;;;;5052533;28;20540;-73
2022/04/18 05:06:20;;;;;;;8.02;1.75;;;29.30;49.70;;;;;;5052485;28;20180;-73
2022/04/18 05:08:47;;;;;;;5.82;2.03;;;30.30;47.70;;;;;;5052644;28;20172;-76
2022/04/18 05:11:15;;;;;;;5.30;1.60;;;29.90;48.90;;;;;;5052874;28;20180;-74
2022/04/18 05:13:42;;;;;;;3.25;1.40;;;29.70;50.20;;;;;;5051976;28;20164;-77
2022/04/18 05:16:10;;;;;;;7.70;1.75;;;29.30;51.40;;;;;;5043791;28;20592;-77
2022/04/18 05:18:37;;;;;;;6.53;2.00;;;28.30;54.30;;;;;;5053353;28;20195;-75
2022/04/18 05:21:04;;;;;;;8.13;2.67;;;27.90;55.90;;;;;;5052540;28;20328;-78
2022/04/18 05:23:32;;;;;;;14.32;2.83;;;28.70;54.30;;;;;;5053059;28;20525;-78
2022/04/18 05:25:59;;;;;;;5.63;2.22;;;29.60;52.90;;;;;;5052136;28;20241;-74
2022/04/18 05:28:27;;;;;;;8.88;2.90;;;29.80;52.00;;;;;;5037954;28;20346;-72
2022/04/18 05:30:54;;;;;;;9.98;4.72;;;29.20;54.00;;;;;;5050123;28;20210;-74
2022/04/18 05:33:21;;;;;;;7.40;3.17;;;29.00;53.80;;;;;;5068215;28;20183;-74
2022/04/18 05:35:49;;;;;;;5.75;1.63;;;29.60;52.10;;;;;;5048142;28;20677;-73
2022/04/18 05:38:17;;;;;;;3.95;1.10;;;29.40;52.10;;;;;;5042762;28;20183;-74
2022/04/18 05:40:44;;;;;;;5.05;1.75;;;29.70;51.30;;;;;;5050836;28;20187;-73
2022/04/18 05:43:12;;;;;;;6.45;1.30;;;29.20;51.80;;;;;;5050515;28;20263;-74
2022/04/18 05:45:40;;;;;;;4.93;1.30;;;28.90;53.30;;;;;;5047639;28;20195;-74
2022/04/18 05:48:07;;;;;;;4.90;1.52;;;28.90;53.90;;;;;;5051992;28;20266;-75
2022/04/18 05:50:35;;;;;;;2.63;1.00;;;28.50;53.50;;;;;;5048336;28;20273;-74
2022/04/18 05:53:02;;;;;;;7.07;1.50;;;28.20;54.90;;;;;;5046757;28;20180;-74
2022/04/18 05:55:35;;;;;;;5.07;1.47;;;28.50;54.80;;;;;;5050155;28;20307;-74
2022/04/18 05:58:04;;;;;;;5.03;1.20;;;28.50;54.70;;;;;;5046582;28;20553;-76
2022/04/18 06:00:34;;;;;;;4.00;1.30;;;28.70;54.60;;;;;;5043359;28;20313;-73
2022/04/18 06:03:02;;;;;;;4.73;1.57;;;28.20;55.90;;;;;;5055684;28;20627;-73
2022/04/18 06:05:29;;;;;;;4.70;1.43;;;28.40;55.60;;;;;;5050362;28;20199;-75
2022/04/18 06:07:56;;;;;;;5.50;1.30;;;27.90;56.80;;;;;;5051732;28;20191;-75
2022/04/18 06:10:24;;;;;;;6.00;1.40;;;27.60;58.20;;;;;;5048653;28;20199;-74
2022/04/18 06:12:52;;;;;;;5.67;1.40;;;27.30;59.10;;;;;;5041643;28;20180;-73
2022/04/18 06:15:19;;;;;;;5.40;1.40;;;26.70;61.30;;;;;;5042970;28;20667;-73
2022/04/18 06:17:47;;;;;;;4.47;1.63;;;26.50;62.20;;;;;;5045039;28;20643;-74
2022/04/18 06:20:14;;;;;;;5.13;1.90;;;26.30;63.00;;;;;;5047132;28;20273;-75
2022/04/18 06:22:41;;;;;;;5.63;1.50;;;25.90;63.10;;;;;;5047020;28;20647;-73
2022/04/18 06:25:09;;;;;;;4.13;1.50;;;25.80;63.60;;;;;;5044884;28;20188;-74
2022/04/18 06:27:36;;;;;;;8.10;1.97;;;26.00;63.80;;;;;;5050643;28;20176;-73
2022/04/18 06:30:04;;;;;;;6.63;2.07;;;25.80;64.50;;;;;;5045410;28;20188;-73
2022/04/18 06:32:35;;;;;;;6.10;1.83;;;25.60;65.40;;;;;;5044885;28;20218;-74
2022/04/18 06:35:03;;;;;;;6.30;1.80;;;25.40;66.00;;;;;;5051330;28;20737;-75
2022/04/18 06:37:32;;;;;;;6.00;1.63;;;25.40;66.10;;;;;;5042108;28;20196;-74
2022/04/18 06:39:59;;;;;;;5.97;1.87;;;25.40;66.20;;;;;;5040768;28;20196;-77
2022/04/18 06:42:27;;;;;;;4.33;1.73;;;25.30;66.30;;;;;;5048055;28;20688;-74
2022/04/18 06:44:54;;;;;;;6.90;1.77;;;25.10;66.70;;;;;;5048504;28;20655;-74
2022/04/18 06:47:21;;;;;;;4.17;1.40;;;24.80;66.80;;;;;;5044586;28;20203;-73
2022/04/18 06:49:49;;;;;;;7.80;2.43;;;24.80;67.30;;;;;;5050427;28;20254;-73
2022/04/18 06:52:16;;;;;;;10.70;2.90;;;24.60;67.10;;;;;;5050733;28;20242;-74
2022/04/18 06:54:43;;;;;;;6.60;2.80;;;24.50;67.50;;;;;;5051368;28;20265;-74
2022/04/18 06:57:11;;;;;;;7.23;2.50;;;24.40;68.00;;;;;;5044830;28;20635;-74
2022/04/18 06:59:39;;;;;;;3.73;1.90;;;24.30;68.30;;;;;;5050829;28;20312;-74
2022/04/18 07:02:06;;;;;;;3.23;1.90;;;24.20;68.50;;;;;;5055841;28;20270;-73
2022/04/18 07:04:33;;;;;;;3.70;1.93;;;24.10;67.90;;;;;;5050465;28;20188;-73
2022/04/18 07:07:01;;;;;;;4.47;1.50;;;24.10;68.20;;;;;;5053389;28;20184;-73
2022/04/18 07:09:28;;;;;;;6.73;2.17;;;24.00;68.00;;;;;;5052554;28;20210;-72
2022/04/18 07:11:56;;;;;;;6.00;1.60;;;23.90;68.60;;;;;;5048979;28;20182;-72
2022/04/18 07:14:24;;;;;;;6.00;1.63;;;23.80;68.30;;;;;;5049153;28;20687;-73
2022/04/18 07:16:52;;;;;;;5.23;1.53;;;23.80;68.80;;;;;;5050280;28;20192;-72
2022/04/18 07:19:20;;;;;;;2.93;1.20;;;23.70;69.50;;;;;;5053092;28;20206;-72
2022/04/18 07:21:47;;;;;;;2.80;1.40;;;23.60;69.90;;;;;;5048046;28;20659;-72
2022/04/18 07:24:14;;;;;;;7.87;1.93;;;23.50;70.80;;;;;;5052785;28;20176;-73
2022/04/18 07:26:41;;;;;;;5.80;1.57;;;23.40;71.30;;;;;;5054426;28;20674;-72
2022/04/18 07:29:09;;;;;;;5.90;1.67;;;23.30;71.90;;;;;;5051676;28;20184;-74
2022/04/18 07:31:36;;;;;;;6.20;2.00;;;23.30;72.20;;;;;;5054769;28;20533;-73
2022/04/18 07:34:04;;;;;;;6.53;1.67;;;23.20;72.80;;;;;;5053641;28;20275;-73
2022/04/18 07:36:31;;;;;;;4.83;1.60;;;23.20;73.20;;;;;;5054697;28;20295;-72
2022/04/18 07:38:59;;;;;;;5.80;1.83;;;23.10;73.30;;;;;;5053354;28;20164;-73
2022/04/18 07:41:29;;;;;;;7.60;2.00;;;23.10;73.80;;;;;;5052308;28;20710;-74
2022/04/18 07:43:58;;;;;;;5.30;1.50;;;23.00;74.20;;;;;;5052474;28;20211;-74
2022/04/18 07:46:25;;;;;;;4.63;1.53;;;23.00;74.00;;;;;;5052773;28;20726;-72
2022/04/18 07:48:53;;;;;;;9.60;2.00;;;23.00;74.10;;;;;;5054257;28;20210;-72
2022/04/18 07:51:40;;;;;;;7.87;1.80;;;22.90;74.20;;;;;;5054643;28;20220;-74
2022/04/18 07:54:11;;;;;;;7.53;2.20;;;22.90;74.20;;;;;;5049039;28;20275;-73
2022/04/18 07:56:38;;;;;;;4.97;2.03;;;22.80;74.30;;;;;;5044833;28;20227;-72
2022/04/18 07:59:06;;;;;;;5.17;2.10;;;22.80;74.00;;;;;;5054028;28;20180;-72
2022/04/18 08:01:34;;;;;;;10.80;2.13;;;22.80;73.80;;;;;;5053411;28;20185;-73
2022/04/18 08:04:04;;;;;;;6.03;1.97;;;22.80;73.90;;;;;;5056873;28;20513;-73
2022/04/18 08:06:32;;;;;;;8.27;2.30;;;22.80;73.90;;;;;;5052811;28;20230;-73
2022/04/18 08:09:00;;;;;;;4.77;2.20;;;22.80;74.00;;;;;;5053720;28;20184;-73
2022/04/18 08:11:28;;;;;;;5.93;2.23;;;22.70;73.90;;;;;;5053320;28;20183;-73
2022/04/18 08:13:55;;;;;;;5.60;1.83;;;22.70;73.60;;;;;;5049375;28;20226;-73
2022/04/18 08:16:23;;;;;;;4.90;1.80;;;22.70;73.60;;;;;;5054220;28;20211;-73
2022/04/18 08:18:51;;;;;;;6.07;1.80;;;22.60;73.80;;;;;;5054412;28;20184;-73
2022/04/18 08:21:19;;;;;;;3.70;1.83;;;22.60;73.90;;;;;;5054114;28;20639;-73
2022/04/18 08:23:49;;;;;;;8.00;2.40;;;22.50;74.10;;;;;;5053328;28;20253;-73
2022/04/18 08:26:17;;;;;;;8.67;2.03;;;22.50;74.40;;;;;;5054145;28;20184;-77
2022/04/18 08:28:44;;;;;;;11.77;10.03;;;22.50;74.70;;;;;;5053870;28;20172;-80
2022/04/18 08:31:11;;;;;;;10.47;5.70;;;22.40;75.00;;;;;;5048328;28;20184;-74
2022/04/18 08:33:39;;;;;;;10.93;4.83;;;22.40;75.30;;;;;;5058526;28;20274;-77
2022/04/18 08:39:28;;;;;;;15.50;8.23;;;22.30;75.40;;;;;;5046366;28;20186;-77
2022/04/18 08:41:58;;;;;;;13.90;4.97;;;22.30;75.40;;;;;;5085997;28;20586;-73
2022/04/18 08:44:30;;;;;;;9.40;2.43;;;22.20;75.50;;;;;;5053899;28;20243;-73
2022/04/18 08:47:00;;;;;;;10.50;2.20;;;22.20;75.00;;;;;;5053907;28;20221;-73
2022/04/18 08:55:01;;;;;;;7.70;2.50;;;22.20;73.90;;;;;;5045256;28;20226;-74
2022/04/18 08:57:29;;;;;;;6.70;2.30;;;22.10;73.70;;;;;;5053532;28;20230;-73
2022/04/18 08:59:57;;;;;;;6.53;2.10;;;22.10;73.50;;;;;;5053297;28;20176;-72
2022/04/18 09:02:27;;;;;;;6.57;1.87;;;22.00;73.40;;;;;;5060014;28;20180;-73
2022/04/18 09:04:56;;;;;;;5.60;2.37;;;22.00;73.30;;;;;;5068839;28;20183;-73
2022/04/18 09:07:23;;;;;;;7.27;3.50;;;22.00;73.10;;;;;;5053307;28;20646;-71
2022/04/18 09:09:59;;;;;;;8.43;2.67;;;22.00;72.80;;;;;;5052663;28;20199;-73
2022/04/18 09:12:31;;;;;;;10.13;5.13;;;22.00;73.00;;;;;;5051070;28;20171;-72
2022/04/18 09:14:58;;;;;;;8.47;2.40;;;22.00;73.00;;;;;;5049682;28;20571;-73
2022/04/18 09:17:34;;;;;;;5.47;2.00;;;22.10;73.00;;;;;;5053337;28;20179;-72
2022/04/18 09:20:05;;;;;;;5.63;2.03;;;22.10;73.00;;;;;;5053244;28;20262;-79
2022/04/18 09:22:48;;;;;;;7.00;2.10;;;22.00;73.30;;;;;;5052359;28;20180;-81
2022/04/18 09:25:22;;;;;;;6.70;2.57;;;22.00;73.40;;;;;;5053234;28;20215;-74
2022/04/18 09:27:58;;;;;;;10.70;2.20;;;22.00;73.80;;;;;;5033338;28;20184;-72
2022/04/18 09:30:31;;;;;;;5.73;3.77;;;22.00;74.10;;;;;;5047465;28;20180;-72
2022/04/18 09:33:03;;;;;;;9.23;5.70;;;21.80;74.40;;;;;;5052493;28;20184;-72
2022/04/18 09:35:30;;;;;;;11.93;5.87;;;21.80;74.80;;;;;;5052454;28;20218;-73
2022/04/18 09:38:11;;;;;;;6.00;3.10;;;21.80;75.20;;;;;;5052491;28;20183;-71
2022/04/18 09:40:38;;;;;;;9.80;2.90;;;21.80;75.60;;;;;;5044762;28;20187;-71
2022/04/18 09:43:06;;;;;;;9.93;2.47;;;21.70;76.10;;;;;;5044538;28;20228;-72
2022/04/18 09:45:33;;;;;;;7.00;2.20;;;21.70;76.30;;;;;;5036997;28;20267;-71
2022/04/18 09:48:04;;;;;;;5.53;2.33;;;21.70;76.60;;;;;;5052825;28;20635;-72
2022/04/18 09:53:26;;;;;;;7.10;2.47;;;21.60;77.00;;;;;;5051731;28;20199;-73
2022/04/18 09:55:58;;;;;;;5.77;1.93;;;21.50;77.30;;;;;;5052310;28;20245;-73
2022/04/18 09:58:25;;;;;;;5.53;2.00;;;21.50;77.70;;;;;;5051791;28;20192;-73
2022/04/18 10:00:53;;;;;;;5.20;2.83;;;21.50;78.00;;;;;;5052256;28;20203;-71
2022/04/18 10:03:20;;;;;;;11.87;1.80;;;21.40;78.30;;;;;;5066445;28;20205;-74
2022/04/18 10:05:50;;;;;;;8.53;2.70;;;21.40;78.50;;;;;;5051666;28;20180;-73
2022/04/18 10:08:18;;;;;;;8.87;2.33;;;21.40;78.50;;;;;;5051884;28;20188;-73
2022/04/18 10:10:46;;;;;;;8.17;1.83;;;21.40;78.80;;;;;;5052569;28;20180;-73
2022/04/18 10:13:14;;;;;;;11.20;2.27;;;21.40;78.60;;;;;;5051951;28;20211;-73
2022/04/18 10:15:41;;;;;;;5.73;2.23;;;21.40;79.00;;;;;;5045559;28;20212;-74
2022/04/18 10:18:12;;;;;;;8.17;2.03;;;21.30;79.10;;;;;;5052923;28;20230;-75
2022/04/18 10:20:54;;;;;;;6.03;2.10;;;21.30;79.30;;;;;;5049181;28;20266;-74
2022/04/18 10:23:42;;;;;;;8.20;1.97;;;21.30;79.50;;;;;;5051880;28;20190;-74
2022/04/18 10:26:46;;;;;;;6.00;1.93;;;21.30;79.40;;;;;;5051673;28;20176;-73
2022/04/18 10:29:54;;;;;;;4.57;1.90;;;21.30;79.20;;;;;;5050231;28;20541;-74
2022/04/18 10:32:26;;;;;;;11.33;6.30;;;21.30;78.30;;;;;;5049531;28;20278;-75
2022/04/18 10:35:01;;;;;;;7.57;5.53;;;21.30;78.50;;;;;;5073280;28;20321;-73
2022/04/18 10:37:31;;;;;;;4.77;1.90;;;21.30;78.30;;;;;;5056825;28;20179;-73
2022/04/18 10:40:06;;;;;;;6.07;1.83;;;21.30;78.20;;;;;;5053004;28;20202;-73
2022/04/18 10:42:36;;;;;;;7.50;1.80;;;21.30;78.30;;;;;;5054385;28;20223;-73
2022/04/18 10:45:09;;;;;;;4.83;1.60;;;21.20;78.50;;;;;;5056035;28;20179;-74
2022/04/18 10:48:06;;;;;;;6.27;1.67;;;21.20;78.40;;;;;;5055650;28;20661;-75
2022/04/18 10:50:41;;;;;;;8.03;2.10;;;21.10;78.80;;;;;;5040484;28;20258;-72
2022/04/18 10:53:22;;;;;;;8.73;1.83;;;21.10;78.20;;;;;;5036342;28;20171;-72
2022/04/18 10:55:53;;;;;;;5.60;1.60;;;21.00;78.00;;;;;;5039920;28;20268;-73
2022/04/18 10:58:32;;;;;;;5.23;2.33;;;21.00;78.00;;;;;;5052208;28;20168;-73
2022/04/18 11:01:02;;;;;;;5.00;1.93;;;21.00;78.00;;;;;;5055928;28;20257;-72
2022/04/18 11:03:47;;;;;;;4.13;1.47;;;20.90;77.60;;;;;;5067194;28;20172;-71
2022/04/18 11:06:17;;;;;;;6.53;2.80;;;20.90;77.20;;;;;;5055868;28;20237;-72
2022/04/18 11:09:06;;;;;;;11.23;6.17;;;20.90;77.20;;;;;;5054685;28;20183;-73
2022/04/18 11:11:56;;;;;;;6.10;2.43;;;21.00;76.80;;;;;;5055248;28;20191;-71
2022/04/18 11:14:29;;;;;;;7.77;1.97;;;20.90;76.50;;;;;;5055622;28;20584;-72
2022/04/18 11:17:00;;;;;;;2.60;1.40;;;21.00;76.50;;;;;;5038851;28;20331;-71
2022/04/18 11:19:30;;;;;;;3.50;1.47;;;21.00;76.00;;;;;;5051802;28;20176;-71
2022/04/18 11:24:40;;;;;;;2.87;1.80;;;21.00;76.30;;;;;;5037360;28;20663;-72
2022/04/18 11:27:12;;;;;;;9.67;2.27;;;21.00;76.50;;;;;;5055309;28;20214;-72
2022/04/18 11:29:50;;;;;;;2.93;1.70;;;21.00;76.70;;;;;;5055248;28;20536;-73
2022/04/18 11:32:19;;;;;;;4.97;2.10;;;20.90;76.60;;;;;;5061063;28;20274;-72
2022/04/18 11:34:49;;;;;;;4.43;1.63;;;20.90;76.70;;;;;;5059812;28;20566;-71
2022/04/18 11:37:39;;;;;;;7.73;2.23;;;20.80;76.90;;;;;;5054907;28;20188;-72
2022/04/18 11:40:11;;;;;;;4.97;1.90;;;20.80;77.00;;;;;;5055170;28;20212;-72
2022/04/18 11:42:41;;;;;;;4.57;1.77;;;20.80;76.70;;;;;;5052639;28;20690;-71
2022/04/18 11:45:23;;;;;;;3.63;1.57;;;20.80;77.00;;;;;;5054582;28;20555;-72
2022/04/18 11:47:50;;;;;;;11.10;7.50;;;20.70;77.70;;;;;;5053000;28;20259;-72
2022/04/18 11:50:24;;;;;;;15.73;11.30;;;20.60;78.10;;;;;;5053850;28;20286;-72
2022/04/18 11:53:03;;;;;;;8.23;2.90;;;20.60;78.60;;;;;;5053488;28;20547;-72
2022/04/18 11:55:31;;;;;;;8.60;2.00;;;20.50;78.80;;;;;;5051559;28;20210;-73
2022/04/18 11:57:58;;;;;;;6.50;1.67;;;20.50;78.90;;;;;;5053470;28;20196;-73
2022/04/18 12:08:48;;;;;;;3.57;1.70;;;20.30;79.50;;;;;;5051912;28;20556;-73
2022/04/18 12:11:16;;;;;;;2.90;1.50;;;20.30;79.60;;;;;;5053553;28;20172;-72
2022/04/18 12:13:45;;;;;;;3.77;1.50;;;20.20;79.80;;;;;;5054295;28;20180;-72
2022/04/18 12:16:16;;;;;;;3.60;1.40;;;20.10;79.90;;;;;;5053485;28;20231;-73
2022/04/18 12:18:44;;;;;;;3.47;1.60;;;20.00;80.30;;;;;;5053500;28;20200;-73
2022/04/18 12:21:15;;;;;;;7.63;1.70;;;19.90;80.30;;;;;;5054171;28;20656;-72
2022/04/18 12:23:43;;;;;;;7.13;1.80;;;19.90;80.40;;;;;;5054642;28;20184;-73
2022/04/18 12:26:12;;;;;;;4.03;1.90;;;19.80;80.80;;;;;;5054340;28;20221;-72
2022/04/18 12:28:39;;;;;;;2.83;1.50;;;19.80;80.80;;;;;;5052168;28;20186;-73
2022/04/18 12:31:11;;;;;;;5.00;1.77;;;19.80;81.20;;;;;;5054134;28;20179;-72
2022/04/18 12:33:51;;;;;;;6.53;3.43;;;19.80;81.30;;;;;;5071910;28;20711;-74
2022/04/18 12:36:35;;;;;;;8.40;4.13;;;19.80;81.20;;;;;;5074058;28;20559;-72
2022/04/18 12:39:05;;;;;;;8.33;3.50;;;20.00;80.30;;;;;;5067527;28;20573;-72
2022/04/18 12:41:38;;;;;;;2.73;1.97;;;20.20;79.80;;;;;;5053459;28;20310;-70
2022/04/18 12:44:15;;;;;;;7.97;1.63;;;20.20;79.50;;;;;;5052840;28;20187;-70
2022/04/18 12:46:43;;;;;;;7.00;1.80;;;20.20;79.30;;;;;;5054263;28;20540;-70
2022/04/18 12:49:11;;;;;;;2.97;1.40;;;20.20;79.00;;;;;;5053480;28;20654;-70
2022/04/18 12:51:42;;;;;;;2.43;1.10;;;20.30;79.00;;;;;;5053860;28;20178;-70
2022/04/18 12:54:22;;;;;;;6.73;1.47;;;20.30;78.80;;;;;;5054208;28;20237;-70
2022/04/18 12:56:51;;;;;;;3.60;1.20;;;20.20;79.00;;;;;;5049059;28;20743;-70
2022/04/18 12:59:27;;;;;;;5.93;1.40;;;20.10;79.20;;;;;;5051080;28;20647;-71
2022/04/18 13:02:07;;;;;;;6.50;1.27;;;20.10;79.30;;;;;;5056396;28;20186;-70
2022/04/18 13:04:34;;;;;;;4.10;1.20;;;20.00;79.40;;;;;;5072980;28;20167;-73
2022/04/18 13:07:07;;;;;;;4.13;1.40;;;20.00;79.60;;;;;;5045827;28;20181;-71
2022/04/18 13:09:34;;;;;;;6.47;1.40;;;20.00;79.70;;;;;;5043230;28;20184;-71
2022/04/18 13:12:09;;;;;;;3.80;1.30;;;20.00;79.70;;;;;;5052501;28;20188;-70
2022/04/18 13:15:05;;;;;;;7.50;1.20;;;19.90;79.80;;;;;;5053408;28;20171;-71
2022/04/18 13:17:35;;;;;;;6.23;1.30;;;19.80;79.90;;;;;;5053644;28;20176;-70
2022/04/18 13:20:07;;;;;;;5.73;1.57;;;19.70;80.60;;;;;;5053224;28;20180;-71
2022/04/18 13:22:35;;;;;;;5.67;1.90;;;19.70;80.50;;;;;;5052174;28;20279;-70
2022/04/18 13:25:03;;;;;;;3.13;1.10;;;19.60;80.70;;;;;;5053072;28;20211;-70